White Sands Natl Monument, New Mexico
Current Conditions -  °F | °C
As of 12:58 PM on Thursday 30 Oct 2014 (Local Time) from KHMN Reporting Station
Clear Clear  
Wind Chill: 75°   Ceiling: Unl
Heat Index: 75°   Visibility: 10mi
Dew Point: 29°   Wind: 3mph
Humidity: 18%   Direction: 290°WNW
Pressure: 30.21"   Gusts: NA
Location:  32.77°N, 106.33°W
Report Text: KHMN 301858Z AUTO 29003KT 10SM CLR 24/M02 A3021 RMK AO2 SLP182 T02411018 $
Loading
Personal Weather Stations






























Interactive Weather Map
Tropical Storm Tracking
New forecast layout! Learn more

10-Day Weather Forecast

Advertisements
Track Severe Weather on mobile